Главная страница
METAR-TAF:

METAR-TAF

Аэропорты :

Женева, Швейцария

широта: 46-15N, долгота: 006-08E, высота над уровнем моря: 420 м

Текущие метеонаблюдения

Эта сводка был подготовлена 34 минут назад, в 02:20 UTC
Ветер 1 Узел от южный-юго-западный
Температура 4°C
Влажность 75%
Давление 1024 hPa
Видимость 10 км и более
Нет облачности ниже 1500 м, и нет кучево-дождевой облачности

METAR: LSGG 240220Z AUTO 20001KT CAVOK 04/M00 Q1024 NOSIG

Время: 03:54 (02:54 UTC)

Прогноз

Эта сводка был подготовлена 29 минут назад, в 02:25 UTC
Прогноз действительный с 24-го 03 UTC до 25-го 09 UTC
Ветер 3 Узел переменных направлений
Видимость 10 км и более
Нет облачности ниже 1500 м, и нет кучево-дождевой облачности
временами
С 24-го 17 UTC до 24-го 20 UTC
Ветер 10 Узел от северно-северо-западный

TAF: LSGG 240225Z 2403/2509 VRB03KT CAVOK TX18/2415Z TN00/2406Z TN01/2506Z TEMPO 2417/2420 34010KT

Метеонаблюдения и прогнозы для более 4000 аэропортов (сводки METAR и TAF).

Имеющиеся станции представлены на карте желтыми и красными точками.

Чтобы увидеть название станции, наведите на нее мышь.

Затем щелкните, чтобы увидеть метеонаблюдения и метеопрогнозы.

Управление картой: чтобы увеличить масштаб, щелкните зеленые кнопки с черным крестиком; чтобы уменьшить масштаб, щелкните зеленую кнопку с тире; для просмотра соседних карт щелкайте зеленые стрелки.


METAR-TAF: